Time;durP1;ratioP1;P1;durP2;ratioP2;P2;SDS_P1;SDS_P2;PMS_P1;PMS_P2;Temp;Humidity;BMP_temperature;BMP_pressure;BME280_temperature;BME280_humidity;BME280_pressure;Samples;Min_cycle;Max_cycle;Signal;HPM_P1;HPM_P2
2023/08/06 00:02:23;;;;;;;5.70;0.73;;;14.40;99.90;;;;;;5135480;27;20039;-71
2023/08/06 00:04:49;;;;;;;0.60;0.60;;;14.40;99.90;;;;;;5102500;28;20038;-72
2023/08/06 00:07:14;;;;;;;1.90;0.38;;;14.40;99.90;;;;;;5109732;27;20035;-71
2023/08/06 00:09:40;;;;;;;0.93;0.55;;;14.40;99.90;;;;;;5102058;28;20126;-71
2023/08/06 00:12:06;;;;;;;0.20;0.20;;;14.40;99.90;;;;;;5133410;27;20039;-70
2023/08/06 00:14:31;;;;;;;0.40;0.20;;;14.40;99.90;;;;;;5103962;28;20118;-71
2023/08/06 00:16:57;;;;;;;0.20;0.20;;;14.40;99.90;;;;;;5122766;27;20050;-70
2023/08/06 00:19:22;;;;;;;0.90;0.32;;;14.30;99.90;;;;;;5103745;27;20027;-71
2023/08/06 00:21:48;;;;;;;0.22;0.22;;;14.30;99.90;;;;;;5110467;28;20050;-71
2023/08/06 00:24:14;;;;;;;0.20;0.20;;;14.40;99.90;;;;;;5103621;28;20063;-71
2023/08/06 00:26:39;;;;;;;0.57;0.57;;;14.30;99.90;;;;;;5101101;27;20040;-71
2023/08/06 00:29:05;;;;;;;0.40;0.40;;;14.30;99.90;;;;;;5107839;27;20469;-70
2023/08/06 00:31:31;;;;;;;0.05;0.05;;;14.30;99.90;;;;;;5109756;27;20122;-70
2023/08/06 00:33:56;;;;;;;0.90;0.45;;;14.20;99.90;;;;;;5118433;27;20546;-71
2023/08/06 00:36:22;;;;;;;1.00;0.25;;;14.20;99.90;;;;;;5134374;27;20035;-74
2023/08/06 00:38:51;;;;;;;0.57;0.22;;;14.10;99.90;;;;;;5103522;28;20149;-70
2023/08/06 00:41:17;;;;;;;0.10;0.10;;;14.10;99.90;;;;;;5099555;28;20406;-70
2023/08/06 00:43:43;;;;;;;0.10;0.10;;;14.10;99.90;;;;;;5115805;27;20031;-71
2023/08/06 00:46:09;;;;;;;0.25;0.22;;;14.00;99.90;;;;;;5101225;27;20031;-71
2023/08/06 00:48:34;;;;;;;0.52;0.52;;;14.00;99.90;;;;;;5118112;27;20031;-74
2023/08/06 00:51:17;;;;;;;0.10;0.10;;;14.00;99.90;;;;;;5115728;27;20118;-69
2023/08/06 00:53:43;;;;;;;0.40;0.30;;;14.00;99.90;;;;;;5109016;28;20122;-70
2023/08/06 00:56:09;;;;;;;0.30;0.30;;;14.00;99.90;;;;;;5097576;28;20185;-70
2023/08/06 00:58:36;;;;;;;0.85;0.17;;;13.90;99.90;;;;;;5129267;27;20032;-69
2023/08/06 01:01:02;;;;;;;0.10;0.10;;;13.90;99.90;;;;;;5109026;27;20118;-70
2023/08/06 01:03:27;;;;;;;0.10;0.10;;;13.90;99.90;;;;;;5104870;28;20130;-70
2023/08/06 01:05:54;;;;;;;1.05;1.00;;;14.00;99.90;;;;;;5101443;28;20036;-70
2023/08/06 01:08:28;;;;;;;2.38;0.80;;;13.90;99.90;;;;;;5113531;27;20035;-70
2023/08/06 01:11:26;;;;;;;0.10;0.10;;;13.90;99.90;;;;;;5101625;27;20481;-69
2023/08/06 01:14:02;;;;;;;0.55;0.32;;;14.00;99.90;;;;;;5112661;27;20046;-69
2023/08/06 01:16:29;;;;;;;0.13;0.13;;;14.00;99.90;;;;;;5102763;27;20039;-71
2023/08/06 01:18:54;;;;;;;0.30;0.30;;;13.90;99.90;;;;;;5116028;27;20035;-69
2023/08/06 01:21:20;;;;;;;0.45;0.22;;;13.90;99.90;;;;;;5116107;27;20043;-70
2023/08/06 01:23:46;;;;;;;0.38;0.30;;;13.90;99.90;;;;;;5108179;28;20486;-69
2023/08/06 01:26:18;;;;;;;0.10;0.10;;;14.00;99.90;;;;;;5101191;28;20042;-69
2023/08/06 01:29:05;;;;;;;0.30;0.30;;;13.90;99.90;;;;;;5133296;27;20038;-69
2023/08/06 01:31:35;;;;;;;0.98;0.57;;;13.90;99.90;;;;;;5118766;27;20126;-71
2023/08/06 01:34:02;;;;;;;0.32;0.32;;;13.90;99.90;;;;;;5108788;28;20117;-70
2023/08/06 01:36:28;;;;;;;0.15;0.15;;;13.90;99.90;;;;;;5097143;28;20039;-71
2023/08/06 01:38:54;;;;;;;0.38;0.30;;;13.80;99.90;;;;;;5098117;28;20043;-69
2023/08/06 01:41:20;;;;;;;0.95;0.95;;;13.90;99.90;;;;;;5112408;28;20035;-70
2023/08/06 01:43:46;;;;;;;0.63;0.40;;;13.90;99.90;;;;;;5112762;28;20046;-70
2023/08/06 01:46:11;;;;;;;0.65;0.38;;;13.90;99.90;;;;;;5095430;28;20027;-71
2023/08/06 01:48:37;;;;;;;0.20;0.20;;;13.80;99.90;;;;;;5100626;28;20046;-71
2023/08/06 01:51:06;;;;;;;0.20;0.20;;;13.80;99.90;;;;;;5095965;28;20500;-70
2023/08/06 01:53:32;;;;;;;0.10;0.10;;;13.80;99.90;;;;;;5097565;28;20085;-71
2023/08/06 01:55:59;;;;;;;0.20;0.20;;;13.80;99.90;;;;;;5099484;28;20541;-70
2023/08/06 01:58:24;;;;;;;0.45;0.30;;;13.70;99.90;;;;;;5102391;28;20035;-70
2023/08/06 02:00:50;;;;;;;0.20;0.20;;;13.70;99.90;;;;;;5115757;28;20504;-71
2023/08/06 02:03:16;;;;;;;0.57;0.55;;;13.80;99.90;;;;;;5115168;28;20329;-70
2023/08/06 02:05:41;;;;;;;0.20;0.20;;;13.70;99.90;;;;;;5109787;28;20028;-71
2023/08/06 02:08:07;;;;;;;0.15;0.15;;;13.70;99.90;;;;;;5113867;28;20490;-71
2023/08/06 02:10:39;;;;;;;0.10;0.10;;;13.70;99.90;;;;;;5115637;28;20042;-72
2023/08/06 02:13:05;;;;;;;1.45;0.20;;;13.70;99.90;;;;;;5125503;28;20039;-72
2023/08/06 02:15:30;;;;;;;0.20;0.20;;;13.70;99.90;;;;;;5107383;28;20042;-72
2023/08/06 02:17:56;;;;;;;0.25;0.25;;;13.80;99.90;;;;;;5111426;28;20043;-70
2023/08/06 02:20:22;;;;;;;0.00;0.00;;;13.80;99.90;;;;;;5115148;28;20408;-70
2023/08/06 02:22:47;;;;;;;0.30;0.22;;;13.80;99.90;;;;;;5102685;28;20032;-71
2023/08/06 02:25:13;;;;;;;0.10;0.10;;;13.80;99.90;;;;;;5119068;28;20032;-70
2023/08/06 02:27:38;;;;;;;0.45;0.43;;;13.80;99.90;;;;;;5103498;27;20405;-71
2023/08/06 02:30:05;;;;;;;1.58;0.40;;;13.80;99.90;;;;;;5115550;27;20095;-71
2023/08/06 02:32:32;;;;;;;1.58;0.50;;;13.80;99.90;;;;;;5091632;28;20503;-73
2023/08/06 02:34:57;;;;;;;0.22;0.20;;;13.80;99.90;;;;;;5135120;27;20070;-71
2023/08/06 02:37:23;;;;;;;0.10;0.10;;;13.70;99.90;;;;;;5110942;27;20482;-72
2023/08/06 02:39:55;;;;;;;0.10;0.10;;;13.70;99.90;;;;;;5108415;27;20036;-71
2023/08/06 02:42:20;;;;;;;0.50;0.50;;;13.80;99.90;;;;;;5113901;27;20035;-73
2023/08/06 02:44:46;;;;;;;1.27;0.30;;;13.70;99.90;;;;;;5136202;27;20478;-74
2023/08/06 02:47:11;;;;;;;0.47;0.47;;;13.70;99.90;;;;;;5121952;27;20038;-72
2023/08/06 02:49:37;;;;;;;0.57;0.25;;;13.70;99.90;;;;;;5097561;27;20038;-74
2023/08/06 02:52:03;;;;;;;0.40;0.28;;;13.60;99.90;;;;;;5110065;27;20039;-72
2023/08/06 02:54:28;;;;;;;0.52;0.52;;;13.60;99.90;;;;;;5104076;27;20482;-72
2023/08/06 02:56:54;;;;;;;0.50;0.50;;;13.60;99.90;;;;;;5108241;27;20050;-72
2023/08/06 02:59:20;;;;;;;0.60;0.60;;;13.60;99.90;;;;;;5137770;27;20044;-73
2023/08/06 03:01:45;;;;;;;0.55;0.50;;;13.60;99.90;;;;;;5105271;27;20114;-73
2023/08/06 03:04:11;;;;;;;0.10;0.10;;;13.60;99.90;;;;;;5122974;27;20381;-70
2023/08/06 03:06:36;;;;;;;0.17;0.17;;;13.60;99.90;;;;;;5108261;27;20043;-70
2023/08/06 03:09:02;;;;;;;0.20;0.20;;;13.60;99.90;;;;;;5101178;27;20031;-72
2023/08/06 03:11:29;;;;;;;0.13;0.13;;;13.60;99.90;;;;;;5104494;27;20040;-71
2023/08/06 03:13:55;;;;;;;0.10;0.10;;;13.60;99.90;;;;;;5108181;27;20046;-72
2023/08/06 03:16:21;;;;;;;0.43;0.40;;;13.60;99.90;;;;;;5104763;27;20035;-71
2023/08/06 03:18:47;;;;;;;0.20;0.20;;;13.60;99.90;;;;;;5104596;27;20051;-72
2023/08/06 03:21:12;;;;;;;0.80;0.55;;;13.60;99.90;;;;;;5126157;27;20567;-71
2023/08/06 03:23:38;;;;;;;0.90;0.30;;;13.70;99.90;;;;;;5100993;27;20036;-72
2023/08/06 03:26:04;;;;;;;0.93;0.32;;;13.60;99.90;;;;;;5112490;27;20461;-72
2023/08/06 03:28:30;;;;;;;0.70;0.32;;;13.70;99.90;;;;;;5109801;27;20039;-73
2023/08/06 03:31:03;;;;;;;0.22;0.22;;;13.70;99.90;;;;;;5104745;27;20443;-72
2023/08/06 03:33:29;;;;;;;0.73;0.60;;;13.70;99.90;;;;;;5103578;27;20046;-72
2023/08/06 03:35:55;;;;;;;0.35;0.35;;;13.70;99.90;;;;;;5114723;27;20064;-72
2023/08/06 03:38:21;;;;;;;0.10;0.10;;;13.70;99.90;;;;;;5110345;27;20055;-72
2023/08/06 03:40:46;;;;;;;0.10;0.10;;;13.70;99.90;;;;;;5101796;27;20352;-72
2023/08/06 03:43:12;;;;;;;0.40;0.40;;;13.70;99.90;;;;;;5103745;28;20031;-71
2023/08/06 03:45:38;;;;;;;0.28;0.28;;;13.70;99.90;;;;;;5135155;27;20031;-72
2023/08/06 03:48:04;;;;;;;0.10;0.10;;;13.70;99.90;;;;;;5141745;27;20039;-72
2023/08/06 03:50:29;;;;;;;0.05;0.05;;;13.70;99.90;;;;;;5096240;27;20398;-71
2023/08/06 03:52:55;;;;;;;0.38;0.20;;;13.70;99.90;;;;;;5103047;27;20118;-71
2023/08/06 03:55:21;;;;;;;0.70;0.70;;;13.80;99.90;;;;;;5102401;27;20066;-72
2023/08/06 03:57:47;;;;;;;0.52;0.52;;;13.80;99.90;;;;;;5137804;27;20039;-72
2023/08/06 04:00:13;;;;;;;0.68;0.35;;;13.80;99.90;;;;;;5100739;27;20512;-72
2023/08/06 04:02:39;;;;;;;6.55;0.30;;;13.80;99.90;;;;;;5100509;27;20047;-73
2023/08/06 04:05:05;;;;;;;1.45;0.35;;;13.80;99.90;;;;;;5101528;27;20042;-72
2023/08/06 04:07:30;;;;;;;0.20;0.20;;;13.80;99.90;;;;;;5102955;27;20481;-72
2023/08/06 04:10:02;;;;;;;0.10;0.10;;;13.80;99.90;;;;;;5103095;27;20066;-72
2023/08/06 04:12:28;;;;;;;0.25;0.25;;;13.80;99.90;;;;;;5104056;27;20190;-72
2023/08/06 04:14:54;;;;;;;0.30;0.20;;;13.80;99.90;;;;;;5100562;27;20084;-72
2023/08/06 04:17:21;;;;;;;0.25;0.10;;;13.80;99.90;;;;;;5105940;27;20043;-72
2023/08/06 04:19:51;;;;;;;0.20;0.20;;;13.80;99.90;;;;;;5071393;27;20142;-71
2023/08/06 04:22:18;;;;;;;0.20;0.10;;;13.80;99.90;;;;;;5087208;27;20392;-72
2023/08/06 04:24:44;;;;;;;0.40;0.40;;;13.80;99.90;;;;;;5105706;27;20039;-72
2023/08/06 04:27:10;;;;;;;0.40;0.40;;;13.80;99.90;;;;;;5101362;27;20038;-72
2023/08/06 04:29:36;;;;;;;0.30;0.30;;;13.90;99.90;;;;;;5131603;27;20482;-71
2023/08/06 04:32:03;;;;;;;0.40;0.40;;;13.90;99.90;;;;;;5102079;28;20046;-71
2023/08/06 04:34:29;;;;;;;0.55;0.55;;;13.80;99.90;;;;;;5095566;27;20420;-72
2023/08/06 04:36:55;;;;;;;0.10;0.10;;;13.90;99.90;;;;;;5103742;27;20036;-71
2023/08/06 04:39:20;;;;;;;0.10;0.10;;;13.90;99.90;;;;;;5099740;27;20043;-72
2023/08/06 04:41:46;;;;;;;0.82;0.22;;;13.90;99.90;;;;;;5102195;27;20049;-72
2023/08/06 04:44:11;;;;;;;0.13;0.13;;;13.90;99.90;;;;;;5101695;27;20386;-71
2023/08/06 04:46:37;;;;;;;0.10;0.10;;;13.90;99.90;;;;;;5102337;28;20042;-72
2023/08/06 04:49:02;;;;;;;0.63;0.20;;;13.90;99.90;;;;;;5115616;27;20031;-72
2023/08/06 04:51:28;;;;;;;0.20;0.20;;;13.90;99.90;;;;;;5100255;27;20047;-71
2023/08/06 04:53:53;;;;;;;0.40;0.40;;;13.90;99.90;;;;;;5101710;27;20043;-72
2023/08/06 04:56:19;;;;;;;1.05;0.28;;;13.90;99.90;;;;;;5101676;27;20035;-72
2023/08/06 04:58:45;;;;;;;0.30;0.30;;;13.90;99.90;;;;;;5095562;27;20474;-72
2023/08/06 05:01:10;;;;;;;0.25;0.25;;;13.90;99.90;;;;;;5103846;27;20039;-72
2023/08/06 05:03:36;;;;;;;0.38;0.38;;;14.00;99.90;;;;;;5100269;27;21315;-73
2023/08/06 05:06:01;;;;;;;1.55;0.73;;;14.00;99.90;;;;;;5098564;27;20456;-72
2023/08/06 05:08:27;;;;;;;0.43;0.43;;;14.00;99.90;;;;;;5118318;27;20031;-73
2023/08/06 05:10:53;;;;;;;1.35;0.30;;;14.00;99.90;;;;;;5098995;27;20062;-72
2023/08/06 05:13:18;;;;;;;0.68;0.60;;;14.00;99.90;;;;;;5097216;27;20043;-73
2023/08/06 05:15:45;;;;;;;0.85;0.30;;;14.00;99.90;;;;;;5105949;27;20032;-73
2023/08/06 05:18:11;;;;;;;0.40;0.22;;;14.00;99.90;;;;;;5101830;27;20051;-73
2023/08/06 05:20:42;;;;;;;1.65;0.45;;;14.10;99.90;;;;;;5131163;27;20035;-73
2023/08/06 05:23:07;;;;;;;0.35;0.32;;;14.10;99.90;;;;;;5097017;27;20035;-73
2023/08/06 05:25:37;;;;;;;0.28;0.20;;;14.10;99.90;;;;;;5096390;28;20364;-74
2023/08/06 05:28:03;;;;;;;2.30;0.47;;;14.10;99.90;;;;;;5100340;27;20045;-74
2023/08/06 05:30:29;;;;;;;0.52;0.35;;;14.10;99.90;;;;;;5098959;27;20482;-74
2023/08/06 05:32:55;;;;;;;0.15;0.15;;;14.20;99.90;;;;;;5130372;27;20042;-74
2023/08/06 05:35:21;;;;;;;0.10;0.10;;;14.20;99.90;;;;;;5102401;27;20142;-74
2023/08/06 05:37:47;;;;;;;1.25;1.20;;;14.20;99.90;;;;;;5080891;28;20147;-74
2023/08/06 05:40:13;;;;;;;0.65;0.40;;;14.20;99.90;;;;;;5096315;28;20073;-73
2023/08/06 05:42:40;;;;;;;0.68;0.68;;;14.20;99.90;;;;;;5130390;27;20457;-74
2023/08/06 05:45:06;;;;;;;0.52;0.52;;;14.30;99.90;;;;;;5094082;28;20062;-75
2023/08/06 05:47:32;;;;;;;0.25;0.25;;;14.30;99.90;;;;;;5101354;28;20345;-74
2023/08/06 05:49:59;;;;;;;0.63;0.20;;;14.30;99.90;;;;;;5126163;27;20641;-74
2023/08/06 05:52:24;;;;;;;0.57;0.55;;;14.40;99.90;;;;;;5101274;28;20471;-74
2023/08/06 05:54:50;;;;;;;0.75;0.30;;;14.40;99.90;;;;;;5097890;28;20043;-75
2023/08/06 05:57:16;;;;;;;0.10;0.10;;;14.40;99.90;;;;;;5101681;28;20381;-74
2023/08/06 05:59:42;;;;;;;1.02;0.88;;;14.50;99.90;;;;;;5105179;28;20184;-74
2023/08/06 06:02:07;;;;;;;0.52;0.52;;;14.50;99.90;;;;;;5115650;28;20130;-74
2023/08/06 06:04:33;;;;;;;0.50;0.50;;;14.60;99.90;;;;;;5106785;27;20043;-74
2023/08/06 06:06:59;;;;;;;0.68;0.68;;;14.60;99.90;;;;;;5138409;27;20023;-74
2023/08/06 06:09:24;;;;;;;0.30;0.30;;;14.60;99.90;;;;;;5117103;27;20510;-73
2023/08/06 06:11:50;;;;;;;0.98;0.30;;;14.60;99.90;;;;;;5102607;27;20084;-74
2023/08/06 06:14:31;;;;;;;2.08;0.30;;;14.70;99.90;;;;;;5102796;27;20031;-73
2023/08/06 06:16:56;;;;;;;0.57;0.50;;;14.70;99.90;;;;;;5113238;28;20040;-74
2023/08/06 06:19:22;;;;;;;0.45;0.40;;;14.70;99.90;;;;;;5106870;27;20058;-74
2023/08/06 06:21:48;;;;;;;0.20;0.20;;;14.70;99.90;;;;;;5117914;27;20043;-74
2023/08/06 06:24:13;;;;;;;0.32;0.25;;;14.70;99.90;;;;;;5118983;27;20038;-73
2023/08/06 06:26:39;;;;;;;0.20;0.20;;;14.80;99.90;;;;;;5127660;27;20484;-73
2023/08/06 06:29:15;;;;;;;0.43;0.40;;;14.80;99.90;;;;;;5132415;27;20036;-74
2023/08/06 06:31:41;;;;;;;0.47;0.47;;;14.80;99.90;;;;;;5098230;28;20118;-74
2023/08/06 06:34:07;;;;;;;4.25;1.08;;;14.80;99.90;;;;;;5098959;28;20105;-73
2023/08/06 06:36:48;;;;;;;0.20;0.20;;;14.80;99.90;;;;;;5113361;27;20039;-73
2023/08/06 06:39:15;;;;;;;2.15;0.80;;;14.90;99.90;;;;;;5138509;27;20054;-73
2023/08/06 06:41:41;;;;;;;0.40;0.35;;;14.80;99.90;;;;;;5119013;27;20114;-73
2023/08/06 06:44:08;;;;;;;0.30;0.30;;;14.90;99.90;;;;;;5116844;27;20476;-73
2023/08/06 06:46:34;;;;;;;0.40;0.40;;;14.90;99.90;;;;;;5131861;27;20059;-74
2023/08/06 06:48:59;;;;;;;0.85;0.85;;;14.90;99.90;;;;;;5098136;28;20039;-72
2023/08/06 06:51:49;;;;;;;0.55;0.55;;;14.90;99.90;;;;;;5098958;28;20397;-73
2023/08/06 06:54:14;;;;;;;0.50;0.50;;;14.90;99.90;;;;;;5101112;27;20122;-72
2023/08/06 06:56:40;;;;;;;1.00;0.45;;;14.90;99.90;;;;;;5118223;27;20078;-74
2023/08/06 06:59:06;;;;;;;1.35;0.52;;;14.90;99.90;;;;;;5118409;27;20070;-73
2023/08/06 07:01:31;;;;;;;0.63;0.63;;;14.90;99.90;;;;;;5118066;27;20123;-73
2023/08/06 07:03:57;;;;;;;1.85;0.60;;;15.00;99.90;;;;;;5116175;27;20071;-73
2023/08/06 07:06:22;;;;;;;0.63;0.35;;;15.00;99.90;;;;;;5107904;27;20035;-73
2023/08/06 07:08:48;;;;;;;1.55;0.30;;;15.00;99.90;;;;;;5117771;27;20066;-73
2023/08/06 07:11:46;;;;;;;0.10;0.10;;;15.00;99.90;;;;;;5118107;27;20039;-73
2023/08/06 07:14:11;;;;;;;1.65;0.43;;;15.00;99.90;;;;;;5107473;27;20038;-73
2023/08/06 07:16:54;;;;;;;1.80;1.77;;;15.00;99.90;;;;;;5118242;27;20043;-73
2023/08/06 07:19:20;;;;;;;0.47;0.47;;;15.10;99.90;;;;;;5099568;28;20039;-72
2023/08/06 07:21:46;;;;;;;0.50;0.50;;;15.10;99.90;;;;;;5120532;27;20040;-72
2023/08/06 07:24:11;;;;;;;0.20;0.20;;;15.10;99.90;;;;;;5102619;27;20036;-74
2023/08/06 07:26:37;;;;;;;1.55;0.52;;;15.20;99.90;;;;;;5098950;28;20542;-73
2023/08/06 07:29:03;;;;;;;2.92;1.30;;;15.20;99.90;;;;;;5112417;27;20030;-72
2023/08/06 07:31:29;;;;;;;0.75;0.75;;;15.20;99.90;;;;;;5117059;27;20047;-71
2023/08/06 07:33:54;;;;;;;0.75;0.30;;;15.30;99.90;;;;;;5105546;28;20043;-74
2023/08/06 07:36:26;;;;;;;0.63;0.50;;;15.30;99.90;;;;;;5131615;27;20039;-74
2023/08/06 07:38:55;;;;;;;1.50;1.10;;;15.40;99.90;;;;;;5115377;27;20047;-75
2023/08/06 07:41:22;;;;;;;1.25;0.95;;;15.40;99.90;;;;;;5141415;27;20047;-73
2023/08/06 07:43:48;;;;;;;2.28;1.13;;;15.40;99.90;;;;;;5123987;27;20054;-75
2023/08/06 07:46:13;;;;;;;2.67;1.33;;;15.50;99.90;;;;;;5115827;27;20039;-73
2023/08/06 07:48:39;;;;;;;4.13;1.17;;;15.50;99.90;;;;;;5109158;27;20358;-74
2023/08/06 07:51:05;;;;;;;1.90;1.65;;;15.60;99.90;;;;;;5122443;27;20035;-76
2023/08/06 07:53:30;;;;;;;9.43;2.50;;;15.60;99.90;;;;;;5093497;28;20427;-77
2023/08/06 07:55:56;;;;;;;3.20;2.63;;;15.70;99.90;;;;;;5100043;27;20062;-74
2023/08/06 07:58:23;;;;;;;2.70;1.50;;;15.70;99.90;;;;;;5096286;27;20035;-75
2023/08/06 08:00:49;;;;;;;3.03;1.15;;;15.70;99.90;;;;;;5130460;27;20039;-74
2023/08/06 08:03:16;;;;;;;0.95;0.70;;;15.80;99.90;;;;;;5102239;27;20401;-74
2023/08/06 08:05:43;;;;;;;0.98;0.93;;;15.70;99.90;;;;;;5105038;27;20039;-74
2023/08/06 08:08:11;;;;;;;2.03;0.60;;;15.80;99.90;;;;;;5108209;27;20085;-74
2023/08/06 08:10:38;;;;;;;1.10;0.65;;;15.80;99.90;;;;;;5106176;27;20115;-74
2023/08/06 08:13:12;;;;;;;0.35;0.35;;;15.90;99.90;;;;;;5111644;27;20077;-72
2023/08/06 08:15:37;;;;;;;0.63;0.63;;;16.00;99.90;;;;;;5096648;27;20413;-75
2023/08/06 08:18:03;;;;;;;3.53;2.13;;;16.00;99.90;;;;;;5097050;27;20031;-74
2023/08/06 08:20:31;;;;;;;3.45;2.17;;;16.10;99.90;;;;;;5109125;27;20043;-73
2023/08/06 08:22:59;;;;;;;4.88;0.60;;;16.10;99.90;;;;;;5107691;27;20036;-72
2023/08/06 08:25:24;;;;;;;1.90;1.17;;;16.10;99.90;;;;;;5103055;27;20118;-73
2023/08/06 08:27:50;;;;;;;1.05;1.00;;;16.20;99.90;;;;;;5131093;27;20146;-72
2023/08/06 08:30:16;;;;;;;3.72;0.65;;;16.20;99.90;;;;;;5095905;28;20040;-73
2023/08/06 08:32:41;;;;;;;1.23;0.82;;;16.30;99.90;;;;;;5096354;27;20035;-75
2023/08/06 08:35:07;;;;;;;1.02;0.85;;;16.30;99.90;;;;;;5094521;27;20039;-73
2023/08/06 08:37:33;;;;;;;0.40;0.40;;;16.40;99.90;;;;;;5106961;28;20517;-74
2023/08/06 08:39:58;;;;;;;0.68;0.50;;;16.40;99.90;;;;;;5116263;27;20126;-76
2023/08/06 08:42:24;;;;;;;0.63;0.63;;;16.50;99.90;;;;;;5110162;27;20050;-71
2023/08/06 08:44:50;;;;;;;4.50;2.40;;;16.50;99.90;;;;;;5113770;27;20070;-72
2023/08/06 08:47:16;;;;;;;2.17;1.00;;;16.50;99.90;;;;;;5095500;27;20418;-72
2023/08/06 08:49:43;;;;;;;2.75;2.28;;;16.60;99.90;;;;;;5106354;27;20046;-75
2023/08/06 08:52:12;;;;;;;1.77;1.65;;;16.60;99.90;;;;;;5090628;27;20038;-74
2023/08/06 08:54:38;;;;;;;9.15;3.17;;;16.70;99.90;;;;;;5139488;27;20363;-71
2023/08/06 08:57:04;;;;;;;1.52;1.38;;;16.70;99.90;;;;;;5113821;27;20062;-71
2023/08/06 08:59:30;;;;;;;1.05;0.50;;;16.70;99.90;;;;;;5095748;28;20043;-72
2023/08/06 09:01:56;;;;;;;2.25;1.27;;;16.70;99.90;;;;;;5091695;28;20039;-71
2023/08/06 09:04:23;;;;;;;0.43;0.43;;;16.80;99.90;;;;;;5106292;27;20093;-71
2023/08/06 09:06:54;;;;;;;5.05;1.45;;;16.80;99.90;;;;;;5130579;27;20465;-74
2023/08/06 09:09:33;;;;;;;5.45;1.38;;;16.80;99.90;;;;;;5114011;27;20047;-75
2023/08/06 09:12:04;;;;;;;1.15;1.05;;;16.80;99.90;;;;;;5114414;27;20046;-74
2023/08/06 09:14:30;;;;;;;4.35;2.70;;;16.90;99.90;;;;;;5098693;27;20111;-71
2023/08/06 09:16:57;;;;;;;5.18;2.25;;;16.90;99.90;;;;;;5110921;27;20121;-74
2023/08/06 09:19:22;;;;;;;8.73;2.38;;;17.00;99.90;;;;;;5099669;27;20073;-76
2023/08/06 09:21:51;;;;;;;7.93;2.72;;;17.00;99.90;;;;;;5107328;27;20051;-74
2023/08/06 09:24:17;;;;;;;2.30;1.75;;;16.90;99.90;;;;;;5101039;27;20367;-75
2023/08/06 09:26:46;;;;;;;3.45;0.90;;;17.00;99.90;;;;;;5129772;27;20039;-75
2023/08/06 09:29:12;;;;;;;4.38;2.65;;;17.00;99.90;;;;;;5095201;28;20032;-76
2023/08/06 09:31:42;;;;;;;5.28;1.58;;;17.00;99.90;;;;;;5109134;27;20054;-74
2023/08/06 09:34:14;;;;;;;5.13;2.03;;;17.10;99.90;;;;;;5105531;27;20624;-76
2023/08/06 09:36:41;;;;;;;4.68;2.58;;;17.10;99.90;;;;;;5111269;27;20447;-76
2023/08/06 09:39:15;;;;;;;4.55;1.63;;;17.20;99.90;;;;;;5100849;27;20041;-74
2023/08/06 09:41:41;;;;;;;1.67;1.52;;;17.20;99.90;;;;;;5115532;28;20043;-75
2023/08/06 09:44:19;;;;;;;1.63;0.98;;;17.30;99.90;;;;;;5104609;28;20060;-75
2023/08/06 09:46:56;;;;;;;2.42;1.70;;;17.40;99.90;;;;;;5101082;28;20055;-74
2023/08/06 09:49:45;;;;;;;2.58;1.27;;;17.50;99.90;;;;;;5082329;28;20055;-73
2023/08/06 09:52:12;;;;;;;2.08;1.25;;;17.60;99.90;;;;;;5103943;28;21137;-74
2023/08/06 09:54:38;;;;;;;3.25;1.95;;;17.70;99.90;;;;;;5096812;28;20070;-75
2023/08/06 09:57:05;;;;;;;7.15;2.78;;;17.70;99.90;;;;;;5102118;28;20085;-76
2023/08/06 09:59:31;;;;;;;3.15;1.40;;;17.70;99.90;;;;;;5108784;28;20038;-73
2023/08/06 10:01:58;;;;;;;3.80;2.75;;;17.70;99.90;;;;;;5111305;28;20051;-72
2023/08/06 10:04:25;;;;;;;6.93;1.25;;;17.80;99.90;;;;;;5104351;28;20448;-71
2023/08/06 10:06:51;;;;;;;1.40;1.20;;;17.90;99.90;;;;;;5094706;28;20214;-74
2023/08/06 10:09:18;;;;;;;2.85;1.40;;;18.10;99.90;;;;;;5102172;28;20123;-76
2023/08/06 10:11:47;;;;;;;3.78;2.50;;;18.20;99.90;;;;;;5147344;27;20051;-76
2023/08/06 10:14:19;;;;;;;1.27;1.13;;;18.20;99.90;;;;;;5104653;28;20080;-75
2023/08/06 10:16:46;;;;;;;0.75;0.75;;;18.20;99.90;;;;;;5117101;28;20533;-74
2023/08/06 10:19:12;;;;;;;1.80;0.63;;;18.30;99.90;;;;;;5098278;28;20580;-74
2023/08/06 10:21:38;;;;;;;9.10;1.35;;;18.50;99.90;;;;;;5113127;28;20051;-74
2023/08/06 10:24:10;;;;;;;3.42;0.90;;;18.60;99.90;;;;;;5098505;28;20050;-73
2023/08/06 10:26:36;;;;;;;8.70;1.70;;;18.80;99.90;;;;;;5113803;28;20039;-74
2023/08/06 10:29:01;;;;;;;0.85;0.65;;;18.80;99.90;;;;;;5127252;28;20032;-76
2023/08/06 10:31:58;;;;;;;1.83;1.70;;;18.90;99.90;;;;;;5108714;27;20038;-74
2023/08/06 10:34:23;;;;;;;1.67;1.05;;;19.00;99.90;;;;;;5107838;28;20446;-74
2023/08/06 10:36:49;;;;;;;1.27;0.93;;;19.10;99.90;;;;;;5111521;28;20122;-74
2023/08/06 10:39:15;;;;;;;1.67;1.02;;;19.10;99.90;;;;;;5106797;28;20047;-74
2023/08/06 10:41:43;;;;;;;2.35;1.88;;;19.10;99.90;;;;;;5096670;28;20148;-75
2023/08/06 10:44:10;;;;;;;4.88;2.42;;;19.20;99.90;;;;;;5118075;28;20051;-74
2023/08/06 10:46:37;;;;;;;1.58;0.93;;;19.20;99.90;;;;;;5105923;28;20326;-75
2023/08/06 10:49:04;;;;;;;1.90;1.05;;;19.10;99.90;;;;;;5105418;27;20031;-73
2023/08/06 10:51:30;;;;;;;2.30;2.10;;;19.20;99.90;;;;;;5113251;27;20286;-75
2023/08/06 10:53:57;;;;;;;2.42;1.40;;;19.30;99.90;;;;;;5110143;27;20035;-74
2023/08/06 10:56:27;;;;;;;4.72;3.30;;;19.60;99.90;;;;;;5126951;27;20038;-75
2023/08/06 10:58:56;;;;;;;1.48;1.10;;;19.70;99.90;;;;;;5117652;27;20043;-73
2023/08/06 11:01:23;;;;;;;3.75;0.80;;;19.80;99.90;;;;;;5131083;27;20083;-74
2023/08/06 11:04:15;;;;;;;1.27;0.68;;;19.90;99.90;;;;;;5129375;27;20108;-75
2023/08/06 11:06:42;;;;;;;;;;;20.10;99.90;;;;;;5134784;27;20374;-73
2023/08/06 11:09:08;;;;;;;0.98;0.75;;;20.30;99.90;;;;;;5097170;28;19919;-74
2023/08/06 11:11:33;;;;;;;0.65;0.57;;;20.50;99.90;;;;;;5116557;27;20544;-73
2023/08/06 11:14:15;;;;;;;1.13;0.55;;;20.60;99.90;;;;;;5107886;27;20096;-71
2023/08/06 11:16:40;;;;;;;3.40;1.10;;;20.50;99.90;;;;;;5114268;27;20038;-72
2023/08/06 11:19:08;;;;;;;3.17;0.90;;;20.40;99.90;;;;;;5096867;27;20301;-70
2023/08/06 11:21:33;;;;;;;2.17;1.35;;;20.30;99.90;;;;;;5096173;28;20123;-74
2023/08/06 11:23:59;;;;;;;2.20;1.75;;;20.10;99.90;;;;;;5099456;27;20573;-74
2023/08/06 11:26:44;;;;;;;2.15;0.73;;;19.90;99.90;;;;;;5108002;28;20097;-74
2023/08/06 11:29:10;;;;;;;4.70;0.65;;;19.90;99.90;;;;;;5097913;27;20127;-71
2023/08/06 11:35:17;;;;;;;1.95;0.60;;;19.90;99.90;;;;;;5126560;27;20401;-73
2023/08/06 11:38:01;;;;;;;1.65;1.55;;;20.00;99.90;;;;;;5117224;27;20468;-71
2023/08/06 11:40:27;;;;;;;1.15;0.68;;;20.00;99.90;;;;;;5127067;27;20030;-71
2023/08/06 11:42:52;;;;;;;0.40;0.25;;;20.00;99.90;;;;;;5138292;27;20087;-72
2023/08/06 11:45:23;;;;;;;1.20;1.10;;;20.00;99.90;;;;;;5139029;27;20469;-72
2023/08/06 11:51:29;;;;;;;0.73;0.68;;;20.00;99.90;;;;;;5156893;27;20033;-72
2023/08/06 11:57:55;;;;;;;0.63;0.40;;;20.00;99.90;;;;;;5118457;27;20034;-70
2023/08/06 12:07:11;;;;;;;1.05;0.93;;;19.80;99.90;;;;;;5112250;27;20081;-71
2023/08/06 12:09:38;;;;;;;0.90;0.68;;;19.80;99.90;;;;;;5106165;27;20067;-67
2023/08/06 12:12:03;;;;;;;3.67;2.58;;;19.80;99.90;;;;;;5112170;27;20039;-68
2023/08/06 12:14:29;;;;;;;1.63;0.88;;;19.70;99.90;;;;;;5104203;27;20562;-70
2023/08/06 12:16:55;;;;;;;2.55;1.05;;;19.50;99.90;;;;;;5103126;27;20047;-70
2023/08/06 12:19:20;;;;;;;1.08;0.70;;;19.30;99.90;;;;;;5098478;27;20406;-69
2023/08/06 12:21:46;;;;;;;1.90;0.95;;;19.20;99.90;;;;;;5100544;27;20043;-69
2023/08/06 12:24:12;;;;;;;2.15;1.30;;;19.00;99.90;;;;;;5110956;27;20545;-72
2023/08/06 12:26:37;;;;;;;0.63;0.52;;;18.90;99.90;;;;;;5111250;27;20114;-70
2023/08/06 12:29:03;;;;;;;0.68;0.68;;;18.90;99.90;;;;;;5104874;27;20114;-70
2023/08/06 12:31:28;;;;;;;0.30;0.30;;;18.80;99.90;;;;;;5120774;27;20039;-68
2023/08/06 12:33:54;;;;;;;0.82;0.82;;;18.80;99.90;;;;;;5103562;27;20117;-68
2023/08/06 12:36:19;;;;;;;10.88;2.25;;;18.70;99.90;;;;;;5114039;27;20046;-68
2023/08/06 12:38:45;;;;;;;0.88;0.88;;;18.60;99.90;;;;;;5104900;27;20039;-69
2023/08/06 12:41:11;;;;;;;2.42;0.30;;;18.60;99.90;;;;;;5119994;27;20129;-70
2023/08/06 12:43:36;;;;;;;0.70;0.70;;;18.50;99.90;;;;;;5104881;27;21579;-68
2023/08/06 12:46:02;;;;;;;5.22;0.80;;;18.50;99.90;;;;;;5106778;27;20509;-73
2023/08/06 12:48:28;;;;;;;3.08;0.73;;;18.50;99.90;;;;;;5103723;27;20053;-70
2023/08/06 12:50:54;;;;;;;1.70;1.20;;;18.60;99.90;;;;;;5100985;27;20084;-68
2023/08/06 12:53:22;;;;;;;1.15;1.00;;;18.60;99.90;;;;;;5100795;28;20039;-73
2023/08/06 12:55:52;;;;;;;1.30;1.20;;;18.60;99.90;;;;;;5096402;28;20059;-74
2023/08/06 12:58:18;;;;;;;1.48;0.52;;;18.80;99.90;;;;;;5100703;27;20113;-73
2023/08/06 13:00:43;;;;;;;0.30;0.30;;;18.80;99.90;;;;;;5113779;27;20078;-74
2023/08/06 13:03:09;;;;;;;0.32;0.32;;;19.00;99.90;;;;;;5104880;28;20031;-74
2023/08/06 13:05:36;;;;;;;0.60;0.50;;;19.10;99.90;;;;;;5117201;27;20122;-74
2023/08/06 13:08:26;;;;;;;1.40;0.95;;;19.20;99.90;;;;;;5113436;28;20039;-72